createdAt,value
2022-10-03T00:00:17.336Z,25.13
2022-10-03T00:02:51.834Z,25.12
2022-10-03T00:05:47.463Z,25.05
2022-10-03T00:08:52.435Z,24.83
2022-10-03T00:11:29.157Z,25.11
2022-10-03T00:14:29.847Z,25.04
2022-10-03T00:17:13.276Z,25.04
2022-10-03T00:20:06.104Z,25.11
2022-10-03T00:22:57.277Z,24.94
2022-10-03T00:25:49.290Z,25.10
2022-10-03T00:28:29.273Z,25.09
2022-10-03T00:31:11.313Z,25.08
2022-10-03T00:34:19.816Z,24.88
2022-10-03T00:36:53.611Z,25.03
2022-10-03T00:39:31.728Z,25.02
2022-10-03T00:42:35.794Z,25.04
2022-10-03T00:45:18.910Z,25.03
2022-10-03T00:48:04.394Z,25.06
2022-10-03T00:51:13.602Z,25.04
2022-10-03T00:54:09.646Z,24.92
2022-10-03T00:56:55.653Z,25.04
2022-10-03T00:59:52.611Z,25.02
2022-10-03T01:02:52.600Z,24.93
2022-10-03T01:05:57.715Z,25.02
2022-10-03T01:08:50.190Z,25.02
2022-10-03T01:11:32.881Z,25.04
2022-10-03T01:14:20.029Z,25.02
2022-10-03T01:16:56.710Z,24.99
2022-10-03T01:19:43.471Z,24.99
2022-10-03T01:22:39.822Z,24.95
2022-10-03T01:25:38.117Z,24.95
2022-10-03T01:29:05.812Z,25.01
2022-10-03T01:31:43.127Z,25.01
2022-10-03T01:34:24.495Z,24.77
2022-10-03T01:37:17.858Z,24.96
2022-10-03T01:39:48.427Z,24.96
2022-10-03T01:42:39.089Z,24.97
2022-10-03T01:45:15.763Z,24.97
2022-10-03T01:47:51.889Z,24.94
2022-10-03T01:50:38.946Z,24.96
2022-10-03T01:53:15.192Z,24.94
2022-10-03T01:56:08.884Z,24.95
2022-10-03T01:58:58.666Z,24.95
2022-10-03T02:01:29.305Z,24.95
2022-10-03T02:04:15.773Z,24.96
2022-10-03T02:07:02.701Z,24.96
2022-10-03T02:09:48.604Z,24.85
2022-10-03T02:12:23.060Z,24.94
2022-10-03T02:15:06.183Z,24.94
2022-10-03T02:17:36.809Z,24.95
2022-10-03T02:20:34.606Z,24.66
2022-10-03T02:23:02.658Z,24.74
2022-10-03T02:25:36.476Z,24.93
2022-10-03T02:28:10.376Z,24.92
2022-10-03T02:31:06.562Z,24.94
2022-10-03T02:34:16.304Z,24.94
2022-10-03T02:37:05.663Z,24.94
2022-10-03T02:40:07.274Z,24.76
2022-10-03T02:43:12.183Z,24.93
2022-10-03T02:45:59.399Z,24.92
2022-10-03T02:48:49.421Z,24.92
2022-10-03T02:51:50.813Z,24.93
2022-10-03T02:54:41.727Z,24.94
2022-10-03T02:57:35.101Z,24.91
2022-10-03T03:00:21.098Z,24.44
2022-10-03T03:02:59.017Z,24.91
2022-10-03T03:06:00.232Z,24.91
2022-10-03T03:08:46.087Z,24.89
2022-10-03T03:11:51.465Z,24.91
2022-10-03T03:14:25.057Z,24.89
2022-10-03T03:17:19.061Z,24.90
2022-10-03T03:20:11.394Z,24.73
2022-10-03T03:23:07.358Z,24.68
2022-10-03T03:26:10.457Z,24.87
2022-10-03T03:29:02.994Z,24.87
2022-10-03T03:32:08.384Z,24.86
2022-10-03T03:34:49.505Z,24.87
2022-10-03T03:37:35.338Z,24.88
2022-10-03T03:40:03.059Z,24.87
2022-10-03T03:42:54.439Z,24.73
2022-10-03T03:45:41.256Z,24.72
2022-10-03T03:48:25.575Z,24.84
2022-10-03T03:51:44.145Z,24.48
2022-10-03T03:54:16.371Z,24.82
2022-10-03T03:57:33.126Z,24.72
2022-10-03T04:00:08.137Z,24.79
2022-10-03T04:03:13.535Z,24.81
2022-10-03T04:05:41.357Z,24.79
2022-10-03T04:08:12.279Z,24.79
2022-10-03T04:11:06.955Z,24.79
2022-10-03T04:13:59.604Z,24.79
2022-10-03T04:17:43.069Z,24.59
2022-10-03T04:20:56.296Z,24.74
2022-10-03T04:23:29.954Z,24.73
2022-10-03T04:26:34.407Z,24.76
2022-10-03T04:29:12.044Z,24.75
2022-10-03T04:31:55.123Z,24.59
2022-10-03T04:34:51.888Z,24.79
2022-10-03T04:37:41.010Z,24.63
2022-10-03T04:40:50.186Z,24.78
2022-10-03T04:43:43.754Z,24.53
2022-10-03T04:46:27.951Z,24.79
2022-10-03T04:49:04.028Z,24.80
2022-10-03T04:52:22.213Z,24.78
2022-10-03T04:55:06.764Z,24.52
2022-10-03T04:57:52.539Z,24.83
2022-10-03T05:00:28.506Z,24.84
2022-10-03T05:03:13.412Z,24.82
2022-10-03T05:05:51.591Z,24.74
2022-10-03T05:08:37.238Z,24.83
2022-10-03T05:11:19.178Z,24.82
2022-10-03T05:14:11.418Z,24.80
2022-10-03T05:16:46.951Z,24.53
2022-10-03T05:19:36.426Z,24.79
2022-10-03T05:22:30.747Z,24.81
2022-10-03T05:25:13.912Z,24.78
2022-10-03T05:27:49.953Z,24.78
2022-10-03T05:30:34.953Z,24.76
2022-10-03T05:33:23.044Z,24.81
2022-10-03T05:36:08.889Z,24.79
2022-10-03T05:39:01.019Z,24.82
2022-10-03T05:41:35.690Z,24.82
2022-10-03T05:44:18.192Z,24.82
2022-10-03T05:46:59.690Z,24.79
2022-10-03T05:49:36.209Z,24.79
2022-10-03T05:52:12.823Z,24.80
2022-10-03T05:54:52.628Z,24.76
2022-10-03T05:57:59.119Z,24.76
2022-10-03T06:00:40.181Z,24.76
2022-10-03T06:03:47.428Z,24.72
2022-10-03T06:06:50.875Z,24.78
2022-10-03T06:09:39.832Z,24.77
2022-10-03T06:12:14.398Z,24.59
2022-10-03T06:15:03.052Z,24.43
2022-10-03T06:17:58.200Z,24.79
2022-10-03T06:21:02.973Z,24.79
2022-10-03T06:23:59.432Z,24.77
2022-10-03T06:26:55.103Z,24.76
2022-10-03T06:30:20.722Z,23.53
2022-10-03T06:33:09.765Z,24.75
2022-10-03T06:36:19.971Z,24.75
2022-10-03T06:39:13.718Z,24.76
2022-10-03T06:42:12.491Z,24.76
2022-10-03T06:45:10.096Z,24.72
2022-10-03T06:48:06.013Z,24.78
2022-10-03T06:51:00.132Z,24.54
2022-10-03T06:53:59.361Z,24.36
2022-10-03T06:56:31.959Z,24.78
2022-10-03T06:59:05.708Z,24.80
2022-10-03T07:01:58.206Z,24.80
2022-10-03T07:04:52.078Z,24.81
2022-10-03T07:07:52.561Z,24.13
2022-10-03T07:10:36.207Z,24.70
2022-10-03T07:13:27.004Z,24.75
2022-10-03T07:16:26.144Z,24.78
2022-10-03T07:19:14.219Z,24.67
2022-10-03T07:21:42.057Z,24.53
2022-10-03T07:24:40.592Z,24.43
2022-10-03T07:27:17.896Z,24.32
2022-10-03T07:29:58.094Z,24.27
2022-10-03T07:32:28.962Z,24.25
2022-10-03T07:35:21.381Z,24.23
2022-10-03T07:38:42.113Z,24.23
2022-10-03T07:41:31.794Z,24.20
2022-10-03T07:44:28.598Z,24.19
2022-10-03T07:47:35.998Z,24.21
2022-10-03T07:50:41.209Z,24.26
2022-10-03T07:53:11.939Z,24.31
2022-10-03T07:56:17.828Z,24.35
2022-10-03T07:58:48.529Z,24.39
2022-10-03T08:01:25.215Z,24.43
2022-10-03T08:03:59.075Z,24.47
2022-10-03T08:06:44.658Z,24.50
2022-10-03T08:09:37.014Z,24.53
2022-10-03T08:12:34.341Z,24.57
2022-10-03T08:15:30.057Z,24.58
2022-10-03T08:18:07.014Z,24.60
2022-10-03T08:20:52.929Z,24.61
2022-10-03T08:23:40.084Z,24.62
2022-10-03T08:26:27.985Z,24.57
2022-10-03T08:29:13.847Z,24.58
2022-10-03T08:32:32.486Z,24.66
2022-10-03T08:35:25.454Z,24.67
2022-10-03T08:38:28.186Z,24.69
2022-10-03T08:41:28.303Z,24.68
2022-10-03T08:44:33.428Z,24.70
2022-10-03T08:47:21.738Z,24.73
2022-10-03T08:49:52.515Z,24.72
2022-10-03T08:52:32.164Z,24.70
2022-10-03T08:55:31.861Z,24.78
2022-10-03T08:58:17.481Z,24.79
2022-10-03T09:01:19.219Z,24.80
2022-10-03T09:03:52.979Z,24.81
2022-10-03T09:10:07.736Z,24.78
2022-10-03T09:12:42.669Z,24.78
2022-10-03T09:15:48.003Z,24.82
2022-10-03T09:18:33.831Z,24.86
2022-10-03T09:22:00.625Z,24.89
2022-10-03T09:24:36.942Z,24.90
2022-10-03T09:27:14.914Z,24.77
2022-10-03T09:29:42.609Z,24.91
2022-10-03T09:32:47.540Z,24.91
2022-10-03T09:35:49.847Z,24.92
2022-10-03T09:38:41.831Z,24.92
2022-10-03T09:41:24.770Z,24.94
2022-10-03T09:43:57.225Z,24.93
2022-10-03T09:47:28.346Z,24.95
2022-10-03T09:50:01.991Z,24.97
2022-10-03T09:52:54.662Z,25.01
2022-10-03T09:55:23.184Z,25.01
2022-10-03T09:58:19.634Z,25.06
2022-10-03T10:01:12.322Z,25.10
2022-10-03T10:03:53.155Z,25.05
2022-10-03T10:06:49.080Z,25.18
2022-10-03T10:09:16.597Z,25.20
2022-10-03T10:12:15.718Z,25.24
2022-10-03T10:14:54.621Z,25.05
2022-10-03T10:17:34.297Z,25.27
2022-10-03T10:20:04.949Z,25.30
2022-10-03T10:23:05.444Z,25.32
2022-10-03T10:25:42.558Z,25.33
2022-10-03T10:28:37.888Z,25.34
2022-10-03T10:31:54.914Z,25.34
2022-10-03T10:34:44.174Z,25.35
2022-10-03T10:37:33.484Z,25.36
2022-10-03T10:40:27.588Z,25.14
2022-10-03T10:43:15.601Z,25.36
2022-10-03T10:46:08.095Z,25.37
2022-10-03T10:49:02.799Z,25.23
2022-10-03T10:51:49.997Z,25.37
2022-10-03T10:54:42.080Z,25.38
2022-10-03T10:57:24.649Z,25.42
2022-10-03T11:00:06.407Z,25.43
2022-10-03T11:02:43.863Z,25.45
2022-10-03T11:05:30.229Z,25.46
2022-10-03T11:08:25.467Z,25.47
2022-10-03T11:11:54.767Z,25.48
2022-10-03T11:14:22.286Z,25.49
2022-10-03T11:16:55.677Z,25.51
2022-10-03T11:19:51.362Z,25.53
2022-10-03T11:22:24.960Z,25.54
2022-10-03T11:25:41.155Z,25.54
2022-10-03T11:28:39.855Z,25.51
2022-10-03T11:31:33.222Z,25.50
2022-10-03T11:34:28.961Z,25.51
2022-10-03T11:37:31.281Z,25.51
2022-10-03T11:40:12.800Z,25.50
2022-10-03T11:42:56.165Z,25.51
2022-10-03T11:45:35.299Z,25.53
2022-10-03T11:48:19.692Z,25.53
2022-10-03T11:50:59.478Z,25.27
2022-10-03T11:53:43.704Z,25.53
2022-10-03T11:56:35.351Z,25.51
2022-10-03T11:59:20.457Z,25.49
2022-10-03T12:02:08.291Z,25.50
2022-10-03T12:05:00.202Z,25.51
2022-10-03T12:08:05.118Z,25.32
2022-10-03T12:11:14.130Z,25.58
2022-10-03T12:13:57.392Z,25.37
2022-10-03T12:16:32.085Z,25.51
2022-10-03T12:19:15.980Z,25.58
2022-10-03T12:22:11.856Z,25.58
2022-10-03T12:24:45.341Z,25.50
2022-10-03T12:27:30.287Z,25.39
2022-10-03T12:30:03.648Z,25.55
2022-10-03T12:32:48.973Z,25.55
2022-10-03T12:35:29.887Z,25.57
2022-10-03T12:38:48.839Z,25.60
2022-10-03T12:41:45.824Z,25.56
2022-10-03T12:44:29.823Z,25.38
2022-10-03T12:47:54.449Z,25.66
2022-10-03T12:51:00.805Z,25.66
2022-10-03T12:53:41.823Z,25.62
2022-10-03T12:56:15.378Z,25.66
2022-10-03T12:59:14.850Z,25.67
2022-10-03T13:01:54.709Z,25.69
2022-10-03T13:05:19.128Z,25.71
2022-10-03T13:07:56.755Z,25.67
2022-10-03T13:10:42.883Z,25.67
2022-10-03T13:13:32.450Z,25.62
2022-10-03T13:16:04.548Z,25.70
2022-10-03T13:18:44.396Z,25.63
2022-10-03T13:21:45.914Z,25.72
2022-10-03T13:24:32.582Z,25.72
2022-10-03T13:27:14.477Z,25.46
2022-10-03T13:29:50.074Z,25.74
2022-10-03T13:32:44.282Z,25.57
2022-10-03T13:35:54.925Z,25.76
2022-10-03T13:39:00.092Z,25.75
2022-10-03T13:41:35.017Z,25.75
2022-10-03T13:44:17.944Z,25.70
2022-10-03T13:46:57.800Z,25.68
2022-10-03T13:49:37.376Z,25.48
2022-10-03T13:52:18.849Z,25.47
2022-10-03T13:55:11.437Z,25.69
2022-10-03T13:57:57.811Z,25.68
2022-10-03T14:00:34.130Z,25.52
2022-10-03T14:03:01.908Z,25.67
2022-10-03T14:05:51.018Z,25.67
2022-10-03T14:08:28.311Z,25.63
2022-10-03T14:11:04.444Z,25.60
2022-10-03T14:13:44.187Z,25.59
2022-10-03T14:16:11.862Z,25.57
2022-10-03T14:19:07.819Z,25.55
2022-10-03T14:22:21.455Z,25.54
2022-10-03T14:25:11.880Z,25.46
2022-10-03T14:27:48.702Z,25.55
2022-10-03T14:30:23.816Z,25.56
2022-10-03T14:33:10.922Z,25.58
2022-10-03T14:36:03.714Z,25.57
2022-10-03T14:38:58.181Z,25.44
2022-10-03T14:42:00.115Z,25.43
2022-10-03T14:44:44.767Z,25.58
2022-10-03T14:47:15.954Z,25.61
2022-10-03T14:49:59.161Z,25.61
2022-10-03T14:52:55.321Z,25.16
2022-10-03T14:55:29.851Z,25.64
2022-10-03T14:58:20.308Z,25.45
2022-10-03T15:00:55.563Z,25.52
2022-10-03T15:03:30.664Z,25.57
2022-10-03T15:06:19.459Z,25.42
2022-10-03T15:08:57.273Z,25.57
2022-10-03T15:11:35.334Z,25.48
2022-10-03T15:14:06.651Z,25.51
2022-10-03T15:16:40.462Z,25.19
2022-10-03T15:19:19.025Z,25.17
2022-10-03T15:21:48.939Z,25.43
2022-10-03T15:24:25.460Z,25.38
2022-10-03T15:27:01.613Z,25.49
2022-10-03T15:29:30.752Z,25.24
2022-10-03T15:31:59.311Z,24.96
2022-10-03T15:34:39.987Z,25.11
2022-10-03T15:37:17.584Z,25.18
2022-10-03T15:39:48.191Z,24.92
2022-10-03T15:42:23.624Z,24.87
2022-10-03T15:45:06.846Z,25.36
2022-10-03T15:47:45.334Z,25.20
2022-10-03T15:50:34.214Z,25.31
2022-10-03T15:53:34.641Z,25.22
2022-10-03T15:56:09.532Z,25.36
2022-10-03T15:58:44.850Z,25.36
2022-10-03T16:01:21.025Z,25.30
2022-10-03T16:04:02.473Z,24.99
2022-10-03T16:06:51.605Z,25.21
2022-10-03T16:09:22.186Z,25.30
2022-10-03T16:12:05.047Z,25.34
2022-10-03T16:15:02.777Z,25.28
2022-10-03T16:18:01.479Z,25.25
2022-10-03T16:20:46.182Z,25.26
2022-10-03T16:23:24.816Z,25.32
2022-10-03T16:26:01.356Z,25.10
2022-10-03T16:28:36.546Z,24.99
2022-10-03T16:31:12.357Z,25.26
2022-10-03T16:33:58.037Z,24.94
2022-10-03T16:36:26.892Z,25.05
2022-10-03T16:39:00.712Z,24.82
2022-10-03T16:41:31.924Z,24.93
2022-10-03T16:44:05.520Z,25.24
2022-10-03T16:46:39.385Z,24.94
2022-10-03T16:49:50.119Z,24.91
2022-10-03T16:52:21.504Z,24.88
2022-10-03T16:54:57.838Z,25.09
2022-10-03T16:57:33.861Z,25.33
2022-10-03T17:00:08.038Z,25.36
2022-10-03T17:02:38.184Z,25.47
2022-10-03T17:05:13.426Z,25.21
2022-10-03T17:07:45.489Z,25.11
2022-10-03T17:10:35.382Z,25.56
2022-10-03T17:13:12.241Z,25.41
2022-10-03T17:15:46.185Z,25.21
2022-10-03T17:18:23.305Z,25.70
2022-10-03T17:21:07.526Z,25.56
2022-10-03T17:23:48.417Z,25.32
2022-10-03T17:26:33.464Z,25.65
2022-10-03T17:29:18.699Z,25.61
2022-10-03T17:32:03.566Z,25.58
2022-10-03T17:35:06.928Z,25.35
2022-10-03T17:38:37.211Z,25.53
2022-10-03T17:41:21.282Z,25.50
2022-10-03T17:44:19.756Z,25.47
2022-10-03T17:47:00.242Z,25.24
2022-10-03T17:49:29.014Z,25.42
2022-10-03T17:51:58.031Z,25.43
2022-10-03T17:54:39.305Z,25.18
2022-10-03T17:57:14.224Z,25.05
2022-10-03T17:59:57.199Z,25.07
2022-10-03T18:02:38.369Z,25.35
2022-10-03T18:05:22.506Z,25.14
2022-10-03T18:07:54.557Z,25.30
2022-10-03T18:10:27.545Z,25.20
2022-10-03T18:13:00.508Z,25.17
2022-10-03T18:15:47.383Z,25.37
2022-10-03T18:18:29.834Z,25.51
2022-10-03T18:21:11.686Z,25.46
2022-10-03T18:23:55.617Z,25.54
2022-10-03T18:26:32.400Z,25.51
2022-10-03T18:29:18.971Z,25.49
2022-10-03T18:31:53.827Z,25.50
2022-10-03T18:34:36.119Z,25.46
2022-10-03T18:37:33.192Z,25.11
2022-10-03T18:40:02.920Z,25.34
2022-10-03T18:42:31.302Z,25.38
2022-10-03T18:45:01.722Z,25.58
2022-10-03T18:47:40.523Z,25.45
2022-10-03T18:50:14.174Z,25.60
2022-10-03T18:52:55.401Z,25.59
2022-10-03T18:55:47.020Z,25.45
2022-10-03T18:58:46.474Z,25.61
2022-10-03T19:01:30.854Z,25.29
2022-10-03T19:04:04.995Z,25.46
2022-10-03T19:06:44.739Z,25.61
2022-10-03T19:09:23.327Z,25.58
2022-10-03T19:12:03.290Z,25.36
2022-10-03T19:15:19.315Z,25.39
2022-10-03T19:18:11.088Z,25.59
2022-10-03T19:20:43.738Z,25.59
2022-10-03T19:23:26.434Z,25.45
2022-10-03T19:25:57.675Z,25.38
2022-10-03T19:28:37.627Z,25.60
2022-10-03T19:31:21.380Z,25.60
2022-10-03T19:34:14.755Z,25.59
2022-10-03T19:36:42.768Z,25.60
2022-10-03T19:39:16.735Z,25.55
2022-10-03T19:42:00.549Z,25.37
2022-10-03T19:44:29.050Z,25.64
2022-10-03T19:47:01.461Z,25.36
2022-10-03T19:49:33.512Z,25.70
2022-10-03T19:52:14.402Z,25.47
2022-10-03T19:55:00.904Z,25.74
2022-10-03T19:57:34.268Z,25.74
2022-10-03T20:00:07.037Z,25.45
2022-10-03T20:02:39.849Z,25.62
2022-10-03T20:05:35.125Z,25.69
2022-10-03T20:08:30.704Z,25.66
2022-10-03T20:11:13.348Z,25.65
2022-10-03T20:13:48.204Z,25.45
2022-10-03T20:16:25.250Z,25.67
2022-10-03T20:18:57.027Z,25.66
2022-10-03T20:21:28.880Z,25.66
2022-10-03T20:23:58.261Z,25.63
2022-10-03T20:26:50.026Z,25.62
2022-10-03T20:29:25.223Z,25.22
2022-10-03T20:32:02.684Z,25.43
2022-10-03T20:34:34.325Z,25.49
2022-10-03T20:37:43.926Z,25.42
2022-10-03T20:40:35.212Z,25.55
2022-10-03T20:43:42.659Z,25.53
2022-10-03T20:46:28.547Z,25.53
2022-10-03T20:49:10.671Z,25.57
2022-10-03T20:52:00.198Z,25.59
2022-10-03T20:54:36.988Z,25.61
2022-10-03T20:57:04.873Z,25.62
2022-10-03T20:59:34.139Z,25.61
2022-10-03T21:02:07.411Z,25.34
2022-10-03T21:05:01.406Z,25.57
2022-10-03T21:07:52.373Z,25.38
2022-10-03T21:10:36.918Z,25.60
2022-10-03T21:13:15.472Z,25.66
2022-10-03T21:16:00.220Z,25.50
2022-10-03T21:18:40.229Z,25.24
2022-10-03T21:21:15.396Z,25.49
2022-10-03T21:24:11.213Z,25.58
2022-10-03T21:26:45.258Z,25.58
2022-10-03T21:29:36.417Z,25.57
2022-10-03T21:32:41.627Z,25.59
2022-10-03T21:35:29.738Z,25.43
2022-10-03T21:38:20.260Z,25.54
2022-10-03T21:41:04.699Z,25.53
2022-10-03T21:43:49.174Z,25.53
2022-10-03T21:46:40.651Z,25.47
2022-10-03T21:49:20.393Z,25.51
2022-10-03T21:51:48.312Z,25.51
2022-10-03T21:54:36.356Z,25.51
2022-10-03T21:57:06.898Z,25.51
2022-10-03T22:00:11.650Z,25.35
2022-10-03T22:03:19.321Z,25.31
2022-10-03T22:05:58.811Z,25.13
2022-10-03T22:08:32.134Z,25.49
2022-10-03T22:11:22.587Z,25.49
2022-10-03T22:13:59.426Z,25.49
2022-10-03T22:16:30.103Z,25.46
2022-10-03T22:19:09.742Z,25.45
2022-10-03T22:21:47.668Z,25.32
2022-10-03T22:24:41.743Z,25.43
2022-10-03T22:27:18.581Z,25.37
2022-10-03T22:30:21.599Z,25.39
2022-10-03T22:33:08.104Z,25.42
2022-10-03T22:35:59.782Z,25.33
2022-10-03T22:38:32.036Z,25.21
2022-10-03T22:41:05.023Z,25.32
2022-10-03T22:43:37.407Z,25.39
2022-10-03T22:46:07.338Z,25.39
2022-10-03T22:48:43.377Z,25.28
2022-10-03T22:51:13.969Z,25.39
2022-10-03T22:53:54.256Z,25.33
2022-10-03T22:56:39.382Z,25.25
2022-10-03T22:59:16.710Z,24.96
2022-10-03T23:01:47.523Z,25.28
2022-10-03T23:04:28.760Z,25.22
2022-10-03T23:07:24.445Z,24.62
2022-10-03T23:10:30.651Z,25.37
2022-10-03T23:13:21.675Z,25.20
2022-10-03T23:15:55.976Z,25.29
2022-10-03T23:18:39.126Z,25.34
2022-10-03T23:21:11.602Z,25.33
2022-10-03T23:24:12.058Z,25.32
2022-10-03T23:27:13.821Z,25.29
2022-10-03T23:29:41.635Z,25.20
2022-10-03T23:32:10.624Z,25.13
2022-10-03T23:34:38.114Z,25.29
2022-10-03T23:37:11.904Z,25.31
2022-10-03T23:39:41.522Z,25.17
2022-10-03T23:42:10.634Z,25.32
2022-10-03T23:44:56.317Z,25.32
2022-10-03T23:47:28.016Z,24.98
2022-10-03T23:49:56.941Z,25.10
2022-10-03T23:52:28.054Z,25.30
2022-10-03T23:55:00.566Z,25.23
2022-10-03T23:57:36.239Z,25.04
